Terminal Aerodrome Forecast
Issued by NWS

Home | Current Version | Previous Version | Text Only | Print | Product List | Glossary On
Versions: 1 2 3 4 5 6 7 8 9 10 11 12 13
000
FTUS45 KABQ 282339
TAFFMN
TAF
KFMN 282339Z 2900/2924 32011KT P6SM VCSH BKN090
      TEMPO 2900/2901 VRB17G28KT -TSRA BKN060CB
     FM290300 07005KT P6SM SCT100 SCT150
     FM291500 13006KT P6SM SCT120
     FM292000 23008KT P6SM SCT120
     FM292300 02011KT P6SM VCSH SCT090 BKN120=

USA.gov is the U.S. government's official web portal to all federal, state and local government web resources and services.